<?xml version="1.0" encoding="UTF-8" standalone="no" ?>
<gpx xmlns="http://www.topografix.com/GPX/1/1" xmlns:xsi="http://www.w3.org/2001/XMLSchema-instance" xsi:schemaLocation="http://www.topografix.com/GPX/1/1 http://www.topografix.com/GPX/1/1/gpx.xsd" version="1.1" creator="VisuGPX - https://www.visugpx.com">
  <metadata>
    <name>SAINT CEZAIRE PONT DES TUVES 13 KM 680 M</name>
    <desc><![CDATA[SAINT CEZAIRE PONT DES TUVES 
 13 KM 680 M
IGN 3543 ET. HAUTE SIAGNE L 322 000.  L 4835 250]]></desc>
  </metadata>
  <trk>
    <name><![CDATA[--Saint-Cézaire-sur-Siagne-- OR-5548602:ST Cézaire-sur-Siagne PONT DES TUVES 12 KM 680 M]]></name>
    <trkseg>
      <trkpt lat="43.64941" lon="6.79307">
        <ele>479</ele>
        <time>2015-12-19T20:07:04Z</time>
      </trkpt>
      <trkpt lat="43.64985" lon="6.79275">
        <ele>481</ele>
        <time>2015-12-19T20:09:04Z</time>
      </trkpt>
      <trkpt lat="43.65022" lon="6.79224">
        <ele>480</ele>
        <time>2015-12-19T20:11:04Z</time>
      </trkpt>
      <trkpt lat="43.6505" lon="6.79181">
        <ele>476</ele>
        <time>2015-12-19T20:13:04Z</time>
      </trkpt>
      <trkpt lat="43.65053" lon="6.79138">
        <ele>465</ele>
        <time>2015-12-19T20:15:04Z</time>
      </trkpt>
      <trkpt lat="43.65034" lon="6.79108">
        <ele>451</ele>
        <time>2015-12-19T20:17:04Z</time>
      </trkpt>
      <trkpt lat="43.65095" lon="6.79091">
        <ele>452</ele>
        <time>2015-12-19T20:19:04Z</time>
      </trkpt>
      <trkpt lat="43.65149" lon="6.79048">
        <ele>434</ele>
        <time>2015-12-19T20:21:04Z</time>
      </trkpt>
      <trkpt lat="43.65219" lon="6.79026">
        <ele>429</ele>
        <time>2015-12-19T20:23:04Z</time>
      </trkpt>
      <trkpt lat="43.65259" lon="6.79009">
        <ele>429</ele>
        <time>2015-12-19T20:25:04Z</time>
      </trkpt>
      <trkpt lat="43.65329" lon="6.7894">
        <ele>417</ele>
        <time>2015-12-19T20:27:04Z</time>
      </trkpt>
      <trkpt lat="43.6539" lon="6.78861">
        <ele>397</ele>
        <time>2015-12-19T20:29:04Z</time>
      </trkpt>
      <trkpt lat="43.65449" lon="6.78837">
        <ele>397</ele>
        <time>2015-12-19T20:31:04Z</time>
      </trkpt>
      <trkpt lat="43.65505" lon="6.7879">
        <ele>385</ele>
        <time>2015-12-19T20:33:04Z</time>
      </trkpt>
      <trkpt lat="43.65494" lon="6.78771">
        <ele>376</ele>
        <time>2015-12-19T20:35:04Z</time>
      </trkpt>
      <trkpt lat="43.65561" lon="6.78698">
        <ele>361</ele>
        <time>2015-12-19T20:37:04Z</time>
      </trkpt>
      <trkpt lat="43.65615" lon="6.78612">
        <ele>343</ele>
        <time>2015-12-19T20:39:04Z</time>
      </trkpt>
      <trkpt lat="43.65655" lon="6.78537">
        <ele>331</ele>
        <time>2015-12-19T20:41:04Z</time>
      </trkpt>
      <trkpt lat="43.65722" lon="6.78415">
        <ele>323</ele>
        <time>2015-12-19T20:43:04Z</time>
      </trkpt>
      <trkpt lat="43.65752" lon="6.78329">
        <ele>311</ele>
        <time>2015-12-19T20:45:04Z</time>
      </trkpt>
      <trkpt lat="43.65776" lon="6.78269">
        <ele>303</ele>
        <time>2015-12-19T20:47:04Z</time>
      </trkpt>
      <trkpt lat="43.6577" lon="6.78241">
        <ele>293</ele>
        <time>2015-12-19T20:49:04Z</time>
      </trkpt>
      <trkpt lat="43.65815" lon="6.78151">
        <ele>284</ele>
        <time>2015-12-19T20:51:04Z</time>
      </trkpt>
      <trkpt lat="43.65784" lon="6.78157">
        <ele>277</ele>
        <time>2015-12-19T20:53:04Z</time>
      </trkpt>
      <trkpt lat="43.65784" lon="6.78134">
        <ele>273</ele>
        <time>2015-12-19T20:55:04Z</time>
      </trkpt>
      <trkpt lat="43.65815" lon="6.78112">
        <ele>276</ele>
        <time>2015-12-19T20:57:04Z</time>
      </trkpt>
      <trkpt lat="43.65775" lon="6.78082">
        <ele>262</ele>
        <time>2015-12-19T20:59:04Z</time>
      </trkpt>
      <trkpt lat="43.65736" lon="6.78026">
        <ele>246</ele>
        <time>2015-12-19T21:01:04Z</time>
      </trkpt>
      <trkpt lat="43.65742" lon="6.77983">
        <ele>239</ele>
        <time>2015-12-19T21:03:04Z</time>
      </trkpt>
      <trkpt lat="43.65762" lon="6.7797">
        <ele>239</ele>
        <time>2015-12-19T21:05:04Z</time>
      </trkpt>
      <trkpt lat="43.65793" lon="6.77992">
        <ele>247</ele>
        <time>2015-12-19T21:07:04Z</time>
      </trkpt>
      <trkpt lat="43.65829" lon="6.77938">
        <ele>235</ele>
        <time>2015-12-19T21:09:04Z</time>
      </trkpt>
      <trkpt lat="43.65884" lon="6.77917">
        <ele>238</ele>
        <time>2015-12-19T21:11:04Z</time>
      </trkpt>
      <trkpt lat="43.6591" lon="6.77885">
        <ele>233</ele>
        <time>2015-12-19T21:13:04Z</time>
      </trkpt>
      <trkpt lat="43.65887" lon="6.77874">
        <ele>225</ele>
        <time>2015-12-19T21:15:04Z</time>
      </trkpt>
      <trkpt lat="43.65913" lon="6.77844">
        <ele>219</ele>
        <time>2015-12-19T21:17:04Z</time>
      </trkpt>
      <trkpt lat="43.65941" lon="6.77835">
        <ele>223</ele>
        <time>2015-12-19T21:19:04Z</time>
      </trkpt>
      <trkpt lat="43.65941" lon="6.77816">
        <ele>218</ele>
        <time>2015-12-19T21:21:04Z</time>
      </trkpt>
      <trkpt lat="43.6591" lon="6.77818">
        <ele>212</ele>
        <time>2015-12-19T21:23:04Z</time>
      </trkpt>
      <trkpt lat="43.65933" lon="6.7779">
        <ele>209</ele>
        <time>2015-12-19T21:25:04Z</time>
      </trkpt>
      <trkpt lat="43.65963" lon="6.77767">
        <ele>210</ele>
        <time>2015-12-19T21:27:04Z</time>
      </trkpt>
      <trkpt lat="43.65939" lon="6.77741">
        <ele>200</ele>
        <time>2015-12-19T21:29:04Z</time>
      </trkpt>
      <trkpt lat="43.65969" lon="6.77713">
        <ele>203</ele>
        <time>2015-12-19T21:31:04Z</time>
      </trkpt>
      <trkpt lat="43.66011" lon="6.77687">
        <ele>207</ele>
        <time>2015-12-19T21:33:04Z</time>
      </trkpt>
      <trkpt lat="43.65988" lon="6.77604">
        <ele>204</ele>
        <time>2015-12-19T21:35:04Z</time>
      </trkpt>
      <trkpt lat="43.65953" lon="6.77614">
        <ele>208</ele>
        <time>2015-12-19T21:37:04Z</time>
      </trkpt>
      <trkpt lat="43.65921" lon="6.77604">
        <ele>215</ele>
        <time>2015-12-19T21:39:04Z</time>
      </trkpt>
      <trkpt lat="43.65891" lon="6.7761">
        <ele>215</ele>
        <time>2015-12-19T21:41:04Z</time>
      </trkpt>
      <trkpt lat="43.65862" lon="6.77597">
        <ele>221</ele>
        <time>2015-12-19T21:43:04Z</time>
      </trkpt>
      <trkpt lat="43.65829" lon="6.77608">
        <ele>220</ele>
        <time>2015-12-19T21:45:04Z</time>
      </trkpt>
      <trkpt lat="43.65807" lon="6.77595">
        <ele>224</ele>
        <time>2015-12-19T21:47:04Z</time>
      </trkpt>
      <trkpt lat="43.65789" lon="6.77599">
        <ele>223</ele>
        <time>2015-12-19T21:49:04Z</time>
      </trkpt>
      <trkpt lat="43.65764" lon="6.77574">
        <ele>228</ele>
        <time>2015-12-19T21:51:04Z</time>
      </trkpt>
      <trkpt lat="43.65722" lon="6.77578">
        <ele>233</ele>
        <time>2015-12-19T21:53:04Z</time>
      </trkpt>
      <trkpt lat="43.65675" lon="6.77606">
        <ele>236</ele>
        <time>2015-12-19T21:55:04Z</time>
      </trkpt>
      <trkpt lat="43.65638" lon="6.77623">
        <ele>235</ele>
        <time>2015-12-19T21:57:04Z</time>
      </trkpt>
      <trkpt lat="43.6559" lon="6.77638">
        <ele>234</ele>
        <time>2015-12-19T21:59:04Z</time>
      </trkpt>
      <trkpt lat="43.65548" lon="6.77664">
        <ele>235</ele>
        <time>2015-12-19T22:01:04Z</time>
      </trkpt>
      <trkpt lat="43.65511" lon="6.7767">
        <ele>243</ele>
        <time>2015-12-19T22:03:04Z</time>
      </trkpt>
      <trkpt lat="43.65491" lon="6.77692">
        <ele>244</ele>
        <time>2015-12-19T22:05:04Z</time>
      </trkpt>
      <trkpt lat="43.65452" lon="6.77726">
        <ele>249</ele>
        <time>2015-12-19T22:07:04Z</time>
      </trkpt>
      <trkpt lat="43.65435" lon="6.77762">
        <ele>248</ele>
        <time>2015-12-19T22:09:04Z</time>
      </trkpt>
      <trkpt lat="43.65426" lon="6.77792">
        <ele>246</ele>
        <time>2015-12-19T22:11:04Z</time>
      </trkpt>
      <trkpt lat="43.65388" lon="6.77799">
        <ele>262</ele>
        <time>2015-12-19T22:13:04Z</time>
      </trkpt>
      <trkpt lat="43.65377" lon="6.77848">
        <ele>260</ele>
        <time>2015-12-19T22:15:04Z</time>
      </trkpt>
      <trkpt lat="43.65349" lon="6.77893">
        <ele>269</ele>
        <time>2015-12-19T22:17:04Z</time>
      </trkpt>
      <trkpt lat="43.65301" lon="6.77962">
        <ele>283</ele>
        <time>2015-12-19T22:19:04Z</time>
      </trkpt>
      <trkpt lat="43.65245" lon="6.78009">
        <ele>292</ele>
        <time>2015-12-19T22:21:04Z</time>
      </trkpt>
      <trkpt lat="43.65186" lon="6.78024">
        <ele>308</ele>
        <time>2015-12-19T22:23:04Z</time>
      </trkpt>
      <trkpt lat="43.65135" lon="6.78058">
        <ele>317</ele>
        <time>2015-12-19T22:25:04Z</time>
      </trkpt>
      <trkpt lat="43.65079" lon="6.78088">
        <ele>327</ele>
        <time>2015-12-19T22:27:04Z</time>
      </trkpt>
      <trkpt lat="43.65025" lon="6.78088">
        <ele>340</ele>
        <time>2015-12-19T22:29:04Z</time>
      </trkpt>
      <trkpt lat="43.65044" lon="6.78056">
        <ele>350</ele>
        <time>2015-12-19T22:31:04Z</time>
      </trkpt>
      <trkpt lat="43.64997" lon="6.78052">
        <ele>364</ele>
        <time>2015-12-19T22:33:04Z</time>
      </trkpt>
      <trkpt lat="43.64982" lon="6.78054">
        <ele>363</ele>
        <time>2015-12-19T22:35:04Z</time>
      </trkpt>
      <trkpt lat="43.64974" lon="6.78037">
        <ele>372</ele>
        <time>2015-12-19T22:37:04Z</time>
      </trkpt>
      <trkpt lat="43.64954" lon="6.78052">
        <ele>365</ele>
        <time>2015-12-19T22:39:04Z</time>
      </trkpt>
      <trkpt lat="43.64941" lon="6.78031">
        <ele>377</ele>
        <time>2015-12-19T22:41:04Z</time>
      </trkpt>
      <trkpt lat="43.64891" lon="6.78026">
        <ele>382</ele>
        <time>2015-12-19T22:43:04Z</time>
      </trkpt>
      <trkpt lat="43.64859" lon="6.78009">
        <ele>392</ele>
        <time>2015-12-19T22:45:04Z</time>
      </trkpt>
      <trkpt lat="43.64822" lon="6.78009">
        <ele>396</ele>
        <time>2015-12-19T22:47:04Z</time>
      </trkpt>
      <trkpt lat="43.64789" lon="6.77996">
        <ele>409</ele>
        <time>2015-12-19T22:49:04Z</time>
      </trkpt>
      <trkpt lat="43.64755" lon="6.78016">
        <ele>409</ele>
        <time>2015-12-19T22:51:04Z</time>
      </trkpt>
      <trkpt lat="43.64718" lon="6.78046">
        <ele>404</ele>
        <time>2015-12-19T22:53:04Z</time>
      </trkpt>
      <trkpt lat="43.64699" lon="6.78037">
        <ele>410</ele>
        <time>2015-12-19T22:55:04Z</time>
      </trkpt>
      <trkpt lat="43.64702" lon="6.78018">
        <ele>415</ele>
        <time>2015-12-19T22:57:04Z</time>
      </trkpt>
      <trkpt lat="43.64671" lon="6.78026">
        <ele>417</ele>
        <time>2015-12-19T22:59:04Z</time>
      </trkpt>
      <trkpt lat="43.64659" lon="6.78007">
        <ele>423</ele>
        <time>2015-12-19T23:01:04Z</time>
      </trkpt>
      <trkpt lat="43.64668" lon="6.7794">
        <ele>428</ele>
        <time>2015-12-19T23:03:04Z</time>
      </trkpt>
      <trkpt lat="43.64679" lon="6.77857">
        <ele>430</ele>
        <time>2015-12-19T23:05:04Z</time>
      </trkpt>
      <trkpt lat="43.64645" lon="6.7782">
        <ele>426</ele>
        <time>2015-12-19T23:07:04Z</time>
      </trkpt>
      <trkpt lat="43.64598" lon="6.77848">
        <ele>424</ele>
        <time>2015-12-19T23:09:04Z</time>
      </trkpt>
      <trkpt lat="43.6455" lon="6.7788">
        <ele>418</ele>
        <time>2015-12-19T23:11:04Z</time>
      </trkpt>
      <trkpt lat="43.64492" lon="6.77938">
        <ele>409</ele>
        <time>2015-12-19T23:13:04Z</time>
      </trkpt>
      <trkpt lat="43.64454" lon="6.77966">
        <ele>404</ele>
        <time>2015-12-19T23:15:04Z</time>
      </trkpt>
      <trkpt lat="43.64402" lon="6.77943">
        <ele>395</ele>
        <time>2015-12-19T23:17:04Z</time>
      </trkpt>
      <trkpt lat="43.64353" lon="6.77925">
        <ele>387</ele>
        <time>2015-12-19T23:19:04Z</time>
      </trkpt>
      <trkpt lat="43.64362" lon="6.77842">
        <ele>388</ele>
        <time>2015-12-19T23:21:04Z</time>
      </trkpt>
      <trkpt lat="43.64364" lon="6.77758">
        <ele>388</ele>
        <time>2015-12-19T23:23:04Z</time>
      </trkpt>
      <trkpt lat="43.64337" lon="6.77687">
        <ele>387</ele>
        <time>2015-12-19T23:25:04Z</time>
      </trkpt>
      <trkpt lat="43.64297" lon="6.77775">
        <ele>384</ele>
        <time>2015-12-19T23:27:04Z</time>
      </trkpt>
      <trkpt lat="43.6427" lon="6.77807">
        <ele>382</ele>
        <time>2015-12-19T23:29:04Z</time>
      </trkpt>
      <trkpt lat="43.64261" lon="6.77837">
        <ele>381</ele>
        <time>2015-12-19T23:31:04Z</time>
      </trkpt>
      <trkpt lat="43.64232" lon="6.77861">
        <ele>381</ele>
        <time>2015-12-19T23:33:04Z</time>
      </trkpt>
      <trkpt lat="43.64213" lon="6.77893">
        <ele>380</ele>
        <time>2015-12-19T23:35:04Z</time>
      </trkpt>
      <trkpt lat="43.64188" lon="6.77951">
        <ele>381</ele>
        <time>2015-12-19T23:37:04Z</time>
      </trkpt>
      <trkpt lat="43.6414" lon="6.77992">
        <ele>382</ele>
        <time>2015-12-19T23:39:04Z</time>
      </trkpt>
      <trkpt lat="43.64067" lon="6.78065">
        <ele>382</ele>
        <time>2015-12-19T23:41:04Z</time>
      </trkpt>
      <trkpt lat="43.64019" lon="6.78138">
        <ele>382</ele>
        <time>2015-12-19T23:43:04Z</time>
      </trkpt>
      <trkpt lat="43.63947" lon="6.78211">
        <ele>383</ele>
        <time>2015-12-19T23:45:04Z</time>
      </trkpt>
      <trkpt lat="43.63919" lon="6.78264">
        <ele>382</ele>
        <time>2015-12-19T23:47:04Z</time>
      </trkpt>
      <trkpt lat="43.63924" lon="6.7835">
        <ele>379</ele>
        <time>2015-12-19T23:49:04Z</time>
      </trkpt>
      <trkpt lat="43.63955" lon="6.78526">
        <ele>382</ele>
        <time>2015-12-19T23:51:04Z</time>
      </trkpt>
      <trkpt lat="43.63958" lon="6.78642">
        <ele>381</ele>
        <time>2015-12-19T23:53:04Z</time>
      </trkpt>
      <trkpt lat="43.63971" lon="6.78698">
        <ele>378</ele>
        <time>2015-12-19T23:55:04Z</time>
      </trkpt>
      <trkpt lat="43.63999" lon="6.78715">
        <ele>376</ele>
        <time>2015-12-19T23:57:04Z</time>
      </trkpt>
      <trkpt lat="43.6402" lon="6.78721">
        <ele>372</ele>
        <time>2015-12-19T23:59:04Z</time>
      </trkpt>
      <trkpt lat="43.64014" lon="6.78749">
        <ele>370</ele>
        <time>2015-12-20T00:01:04Z</time>
      </trkpt>
      <trkpt lat="43.64008" lon="6.78779">
        <ele>367</ele>
        <time>2015-12-20T00:03:04Z</time>
      </trkpt>
      <trkpt lat="43.64019" lon="6.78799">
        <ele>360</ele>
        <time>2015-12-20T00:05:04Z</time>
      </trkpt>
      <trkpt lat="43.64056" lon="6.78775">
        <ele>354</ele>
        <time>2015-12-20T00:07:04Z</time>
      </trkpt>
      <trkpt lat="43.64096" lon="6.78732">
        <ele>354</ele>
        <time>2015-12-20T00:09:04Z</time>
      </trkpt>
      <trkpt lat="43.64148" lon="6.787">
        <ele>344</ele>
        <time>2015-12-20T00:11:04Z</time>
      </trkpt>
      <trkpt lat="43.64151" lon="6.78724">
        <ele>335</ele>
        <time>2015-12-20T00:13:04Z</time>
      </trkpt>
      <trkpt lat="43.64247" lon="6.78661">
        <ele>309</ele>
        <time>2015-12-20T00:15:04Z</time>
      </trkpt>
      <trkpt lat="43.64319" lon="6.7861">
        <ele>303</ele>
        <time>2015-12-20T00:17:04Z</time>
      </trkpt>
      <trkpt lat="43.64357" lon="6.78586">
        <ele>302</ele>
        <time>2015-12-20T00:19:04Z</time>
      </trkpt>
      <trkpt lat="43.64346" lon="6.7861">
        <ele>294</ele>
        <time>2015-12-20T00:21:04Z</time>
      </trkpt>
      <trkpt lat="43.64374" lon="6.78601">
        <ele>289</ele>
        <time>2015-12-20T00:23:04Z</time>
      </trkpt>
      <trkpt lat="43.64322" lon="6.78679">
        <ele>269</ele>
        <time>2015-12-20T00:25:04Z</time>
      </trkpt>
      <trkpt lat="43.64283" lon="6.78734">
        <ele>265</ele>
        <time>2015-12-20T00:27:04Z</time>
      </trkpt>
      <trkpt lat="43.64297" lon="6.78743">
        <ele>255</ele>
        <time>2015-12-20T00:29:04Z</time>
      </trkpt>
      <trkpt lat="43.64277" lon="6.78799">
        <ele>243</ele>
        <time>2015-12-20T00:31:04Z</time>
      </trkpt>
      <trkpt lat="43.64264" lon="6.78848">
        <ele>231</ele>
        <time>2015-12-20T00:33:04Z</time>
      </trkpt>
      <trkpt lat="43.64246" lon="6.78887">
        <ele>225</ele>
        <time>2015-12-20T00:35:04Z</time>
      </trkpt>
      <trkpt lat="43.64239" lon="6.78934">
        <ele>215</ele>
        <time>2015-12-20T00:37:04Z</time>
      </trkpt>
      <trkpt lat="43.64269" lon="6.78923">
        <ele>204</ele>
        <time>2015-12-20T00:39:04Z</time>
      </trkpt>
      <trkpt lat="43.64284" lon="6.79018">
        <ele>187</ele>
        <time>2015-12-20T00:41:04Z</time>
      </trkpt>
      <trkpt lat="43.64322" lon="6.7899">
        <ele>179</ele>
        <time>2015-12-20T00:43:04Z</time>
      </trkpt>
      <trkpt lat="43.64342" lon="6.79063">
        <ele>178</ele>
        <time>2015-12-20T00:45:04Z</time>
      </trkpt>
      <trkpt lat="43.64373" lon="6.79091">
        <ele>191</ele>
        <time>2015-12-20T00:47:04Z</time>
      </trkpt>
      <trkpt lat="43.64364" lon="6.79118">
        <ele>195</ele>
        <time>2015-12-20T00:49:04Z</time>
      </trkpt>
      <trkpt lat="43.64336" lon="6.79131">
        <ele>185</ele>
        <time>2015-12-20T00:51:04Z</time>
      </trkpt>
      <trkpt lat="43.64292" lon="6.79196">
        <ele>193</ele>
        <time>2015-12-20T00:53:04Z</time>
      </trkpt>
      <trkpt lat="43.64246" lon="6.79219">
        <ele>186</ele>
        <time>2015-12-20T00:55:04Z</time>
      </trkpt>
      <trkpt lat="43.64238" lon="6.79284">
        <ele>199</ele>
        <time>2015-12-20T00:57:04Z</time>
      </trkpt>
      <trkpt lat="43.64213" lon="6.7932">
        <ele>201</ele>
        <time>2015-12-20T00:59:04Z</time>
      </trkpt>
      <trkpt lat="43.64218" lon="6.79376">
        <ele>224</ele>
        <time>2015-12-20T01:01:04Z</time>
      </trkpt>
      <trkpt lat="43.64171" lon="6.79408">
        <ele>219</ele>
        <time>2015-12-20T01:03:04Z</time>
      </trkpt>
      <trkpt lat="43.64129" lon="6.79436">
        <ele>221</ele>
        <time>2015-12-20T01:05:04Z</time>
      </trkpt>
      <trkpt lat="43.64169" lon="6.79507">
        <ele>261</ele>
        <time>2015-12-20T01:07:04Z</time>
      </trkpt>
      <trkpt lat="43.64132" lon="6.79511">
        <ele>253</ele>
        <time>2015-12-20T01:09:04Z</time>
      </trkpt>
      <trkpt lat="43.64114" lon="6.79509">
        <ele>248</ele>
        <time>2015-12-20T01:11:04Z</time>
      </trkpt>
      <trkpt lat="43.64089" lon="6.79528">
        <ele>251</ele>
        <time>2015-12-20T01:13:04Z</time>
      </trkpt>
      <trkpt lat="43.64117" lon="6.79541">
        <ele>264</ele>
        <time>2015-12-20T01:15:04Z</time>
      </trkpt>
      <trkpt lat="43.64092" lon="6.79558">
        <ele>266</ele>
        <time>2015-12-20T01:17:04Z</time>
      </trkpt>
      <trkpt lat="43.64092" lon="6.7958">
        <ele>277</ele>
        <time>2015-12-20T01:19:04Z</time>
      </trkpt>
      <trkpt lat="43.64064" lon="6.79584">
        <ele>271</ele>
        <time>2015-12-20T01:21:04Z</time>
      </trkpt>
      <trkpt lat="43.64067" lon="6.79603">
        <ele>281</ele>
        <time>2015-12-20T01:23:04Z</time>
      </trkpt>
      <trkpt lat="43.64033" lon="6.79633">
        <ele>282</ele>
        <time>2015-12-20T01:25:04Z</time>
      </trkpt>
      <trkpt lat="43.63988" lon="6.79694">
        <ele>291</ele>
        <time>2015-12-20T01:27:04Z</time>
      </trkpt>
      <trkpt lat="43.63944" lon="6.79736">
        <ele>294</ele>
        <time>2015-12-20T01:29:04Z</time>
      </trkpt>
      <trkpt lat="43.63909" lon="6.79741">
        <ele>286</ele>
        <time>2015-12-20T01:31:04Z</time>
      </trkpt>
      <trkpt lat="43.63878" lon="6.79784">
        <ele>300</ele>
        <time>2015-12-20T01:33:04Z</time>
      </trkpt>
      <trkpt lat="43.63811" lon="6.79756">
        <ele>277</ele>
        <time>2015-12-20T01:35:04Z</time>
      </trkpt>
      <trkpt lat="43.6375" lon="6.79784">
        <ele>283</ele>
        <time>2015-12-20T01:37:04Z</time>
      </trkpt>
      <trkpt lat="43.63693" lon="6.79734">
        <ele>280</ele>
        <time>2015-12-20T01:39:04Z</time>
      </trkpt>
      <trkpt lat="43.63643" lon="6.797">
        <ele>277</ele>
        <time>2015-12-20T01:41:04Z</time>
      </trkpt>
      <trkpt lat="43.63595" lon="6.79666">
        <ele>275</ele>
        <time>2015-12-20T01:43:04Z</time>
      </trkpt>
      <trkpt lat="43.63541" lon="6.79623">
        <ele>253</ele>
        <time>2015-12-20T01:45:04Z</time>
      </trkpt>
      <trkpt lat="43.63492" lon="6.79653">
        <ele>264</ele>
        <time>2015-12-20T01:47:04Z</time>
      </trkpt>
      <trkpt lat="43.63475" lon="6.79668">
        <ele>262</ele>
        <time>2015-12-20T01:49:04Z</time>
      </trkpt>
      <trkpt lat="43.63447" lon="6.7967">
        <ele>250</ele>
        <time>2015-12-20T01:51:04Z</time>
      </trkpt>
      <trkpt lat="43.6343" lon="6.79689">
        <ele>251</ele>
        <time>2015-12-20T01:53:04Z</time>
      </trkpt>
      <trkpt lat="43.63404" lon="6.79655">
        <ele>227</ele>
        <time>2015-12-20T01:55:04Z</time>
      </trkpt>
      <trkpt lat="43.63376" lon="6.79741">
        <ele>242</ele>
        <time>2015-12-20T01:57:04Z</time>
      </trkpt>
      <trkpt lat="43.63356" lon="6.79782">
        <ele>246</ele>
        <time>2015-12-20T01:59:04Z</time>
      </trkpt>
      <trkpt lat="43.63312" lon="6.7982">
        <ele>232</ele>
        <time>2015-12-20T02:01:04Z</time>
      </trkpt>
      <trkpt lat="43.63278" lon="6.79917">
        <ele>260</ele>
        <time>2015-12-20T02:03:04Z</time>
      </trkpt>
      <trkpt lat="43.63174" lon="6.79947">
        <ele>231</ele>
        <time>2015-12-20T02:05:04Z</time>
      </trkpt>
      <trkpt lat="43.63073" lon="6.79949">
        <ele>195</ele>
        <time>2015-12-20T02:07:04Z</time>
      </trkpt>
      <trkpt lat="43.6302" lon="6.8">
        <ele>202</ele>
        <time>2015-12-20T02:09:04Z</time>
      </trkpt>
      <trkpt lat="43.62975" lon="6.8003">
        <ele>198</ele>
        <time>2015-12-20T02:11:04Z</time>
      </trkpt>
      <trkpt lat="43.62949" lon="6.80065">
        <ele>201</ele>
        <time>2015-12-20T02:13:04Z</time>
      </trkpt>
      <trkpt lat="43.62949" lon="6.80114">
        <ele>207</ele>
        <time>2015-12-20T02:15:04Z</time>
      </trkpt>
      <trkpt lat="43.62925" lon="6.80185">
        <ele>201</ele>
        <time>2015-12-20T02:17:04Z</time>
      </trkpt>
      <trkpt lat="43.62865" lon="6.80196">
        <ele>180</ele>
        <time>2015-12-20T02:19:04Z</time>
      </trkpt>
      <trkpt lat="43.62823" lon="6.80163">
        <ele>165</ele>
        <time>2015-12-20T02:21:04Z</time>
      </trkpt>
      <trkpt lat="43.62853" lon="6.80189">
        <ele>176</ele>
        <time>2015-12-20T02:23:04Z</time>
      </trkpt>
      <trkpt lat="43.62875" lon="6.80192">
        <ele>184</ele>
        <time>2015-12-20T02:25:04Z</time>
      </trkpt>
      <trkpt lat="43.6292" lon="6.80185">
        <ele>200</ele>
        <time>2015-12-20T02:27:04Z</time>
      </trkpt>
      <trkpt lat="43.6293" lon="6.80171">
        <ele>203</ele>
        <time>2015-12-20T02:29:04Z</time>
      </trkpt>
      <trkpt lat="43.6295" lon="6.80103">
        <ele>206</ele>
        <time>2015-12-20T02:31:04Z</time>
      </trkpt>
      <trkpt lat="43.62948" lon="6.80073">
        <ele>203</ele>
        <time>2015-12-20T02:33:04Z</time>
      </trkpt>
      <trkpt lat="43.62955" lon="6.80057">
        <ele>201</ele>
        <time>2015-12-20T02:35:04Z</time>
      </trkpt>
      <trkpt lat="43.62981" lon="6.80026">
        <ele>199</ele>
        <time>2015-12-20T02:37:04Z</time>
      </trkpt>
      <trkpt lat="43.63027" lon="6.79995">
        <ele>202</ele>
        <time>2015-12-20T02:39:04Z</time>
      </trkpt>
      <trkpt lat="43.63066" lon="6.79955">
        <ele>196</ele>
        <time>2015-12-20T02:41:04Z</time>
      </trkpt>
      <trkpt lat="43.63082" lon="6.79949">
        <ele>197</ele>
        <time>2015-12-20T02:43:04Z</time>
      </trkpt>
      <trkpt lat="43.63185" lon="6.79944">
        <ele>234</ele>
        <time>2015-12-20T02:45:04Z</time>
      </trkpt>
      <trkpt lat="43.63271" lon="6.79922">
        <ele>259</ele>
        <time>2015-12-20T02:47:04Z</time>
      </trkpt>
      <trkpt lat="43.63283" lon="6.79903">
        <ele>256</ele>
        <time>2015-12-20T02:49:04Z</time>
      </trkpt>
      <trkpt lat="43.63311" lon="6.79828">
        <ele>233</ele>
        <time>2015-12-20T02:51:04Z</time>
      </trkpt>
      <trkpt lat="43.6332" lon="6.79813">
        <ele>234</ele>
        <time>2015-12-20T02:53:04Z</time>
      </trkpt>
      <trkpt lat="43.63363" lon="6.79773">
        <ele>247</ele>
        <time>2015-12-20T02:55:04Z</time>
      </trkpt>
      <trkpt lat="43.63383" lon="6.79731">
        <ele>243</ele>
        <time>2015-12-20T02:57:04Z</time>
      </trkpt>
      <trkpt lat="43.63402" lon="6.79666">
        <ele>228</ele>
        <time>2015-12-20T02:59:04Z</time>
      </trkpt>
      <trkpt lat="43.63411" lon="6.79662">
        <ele>231</ele>
        <time>2015-12-20T03:01:04Z</time>
      </trkpt>
      <trkpt lat="43.63424" lon="6.79682">
        <ele>245</ele>
        <time>2015-12-20T03:03:04Z</time>
      </trkpt>
      <trkpt lat="43.63437" lon="6.79684">
        <ele>252</ele>
        <time>2015-12-20T03:05:04Z</time>
      </trkpt>
      <trkpt lat="43.63442" lon="6.79675">
        <ele>250</ele>
        <time>2015-12-20T03:07:04Z</time>
      </trkpt>
      <trkpt lat="43.63457" lon="6.7967">
        <ele>255</ele>
        <time>2015-12-20T03:09:04Z</time>
      </trkpt>
      <trkpt lat="43.63469" lon="6.79671">
        <ele>261</ele>
        <time>2015-12-20T03:11:04Z</time>
      </trkpt>
      <trkpt lat="43.63482" lon="6.79661">
        <ele>262</ele>
        <time>2015-12-20T03:13:04Z</time>
      </trkpt>
      <trkpt lat="43.63499" lon="6.7965">
        <ele>265</ele>
        <time>2015-12-20T03:15:04Z</time>
      </trkpt>
      <trkpt lat="43.63533" lon="6.79629">
        <ele>257</ele>
        <time>2015-12-20T03:17:04Z</time>
      </trkpt>
      <trkpt lat="43.63548" lon="6.79632">
        <ele>258</ele>
        <time>2015-12-20T03:19:04Z</time>
      </trkpt>
      <trkpt lat="43.63652" lon="6.79709">
        <ele>279</ele>
        <time>2015-12-20T03:21:04Z</time>
      </trkpt>
      <trkpt lat="43.63699" lon="6.79742">
        <ele>281</ele>
        <time>2015-12-20T03:23:04Z</time>
      </trkpt>
      <trkpt lat="43.63743" lon="6.79777">
        <ele>282</ele>
        <time>2015-12-20T03:25:04Z</time>
      </trkpt>
      <trkpt lat="43.6376" lon="6.79782">
        <ele>283</ele>
        <time>2015-12-20T03:27:04Z</time>
      </trkpt>
      <trkpt lat="43.63804" lon="6.79763">
        <ele>279</ele>
        <time>2015-12-20T03:29:04Z</time>
      </trkpt>
      <trkpt lat="43.63822" lon="6.79761">
        <ele>280</ele>
        <time>2015-12-20T03:31:04Z</time>
      </trkpt>
      <trkpt lat="43.63868" lon="6.79783">
        <ele>298</ele>
        <time>2015-12-20T03:33:04Z</time>
      </trkpt>
      <trkpt lat="43.63886" lon="6.79775">
        <ele>297</ele>
        <time>2015-12-20T03:35:04Z</time>
      </trkpt>
      <trkpt lat="43.63905" lon="6.79748">
        <ele>288</ele>
        <time>2015-12-20T03:37:04Z</time>
      </trkpt>
      <trkpt lat="43.63916" lon="6.79741">
        <ele>287</ele>
        <time>2015-12-20T03:39:04Z</time>
      </trkpt>
      <trkpt lat="43.63938" lon="6.79736">
        <ele>292</ele>
        <time>2015-12-20T03:41:04Z</time>
      </trkpt>
      <trkpt lat="43.63952" lon="6.79731">
        <ele>294</ele>
        <time>2015-12-20T03:43:04Z</time>
      </trkpt>
      <trkpt lat="43.63982" lon="6.797">
        <ele>291</ele>
        <time>2015-12-20T03:45:04Z</time>
      </trkpt>
      <trkpt lat="43.63996" lon="6.79681">
        <ele>288</ele>
        <time>2015-12-20T03:47:04Z</time>
      </trkpt>
      <trkpt lat="43.64023" lon="6.79658">
        <ele>289</ele>
        <time>2015-12-20T03:49:04Z</time>
      </trkpt>
      <trkpt lat="43.64055" lon="6.79656">
        <ele>301</ele>
        <time>2015-12-20T03:51:04Z</time>
      </trkpt>
      <trkpt lat="43.64084" lon="6.79629">
        <ele>299</ele>
        <time>2015-12-20T03:53:04Z</time>
      </trkpt>
      <trkpt lat="43.64143" lon="6.79629">
        <ele>309</ele>
        <time>2015-12-20T03:55:04Z</time>
      </trkpt>
      <trkpt lat="43.64177" lon="6.79638">
        <ele>320</ele>
        <time>2015-12-20T03:57:04Z</time>
      </trkpt>
      <trkpt lat="43.64217" lon="6.79618">
        <ele>325</ele>
        <time>2015-12-20T03:59:04Z</time>
      </trkpt>
      <trkpt lat="43.64247" lon="6.79569">
        <ele>316</ele>
        <time>2015-12-20T04:01:04Z</time>
      </trkpt>
      <trkpt lat="43.64303" lon="6.7955">
        <ele>333</ele>
        <time>2015-12-20T04:03:04Z</time>
      </trkpt>
      <trkpt lat="43.64339" lon="6.79462">
        <ele>324</ele>
        <time>2015-12-20T04:05:04Z</time>
      </trkpt>
      <trkpt lat="43.64399" lon="6.79423">
        <ele>343</ele>
        <time>2015-12-20T04:07:04Z</time>
      </trkpt>
      <trkpt lat="43.64488" lon="6.79397">
        <ele>383</ele>
        <time>2015-12-20T04:09:04Z</time>
      </trkpt>
      <trkpt lat="43.64531" lon="6.79292">
        <ele>365</ele>
        <time>2015-12-20T04:11:04Z</time>
      </trkpt>
      <trkpt lat="43.64579" lon="6.79264">
        <ele>383</ele>
        <time>2015-12-20T04:13:04Z</time>
      </trkpt>
      <trkpt lat="43.64629" lon="6.79232">
        <ele>387</ele>
        <time>2015-12-20T04:15:04Z</time>
      </trkpt>
      <trkpt lat="43.64702" lon="6.79234">
        <ele>405</ele>
        <time>2015-12-20T04:17:04Z</time>
      </trkpt>
      <trkpt lat="43.64761" lon="6.79264">
        <ele>429</ele>
        <time>2015-12-20T04:19:04Z</time>
      </trkpt>
      <trkpt lat="43.64811" lon="6.79324">
        <ele>466</ele>
        <time>2015-12-20T04:21:04Z</time>
      </trkpt>
      <trkpt lat="43.64865" lon="6.79316">
        <ele>472</ele>
        <time>2015-12-20T04:23:04Z</time>
      </trkpt>
      <trkpt lat="43.64904" lon="6.79292">
        <ele>474</ele>
        <time>2015-12-20T04:25:04Z</time>
      </trkpt>
      <trkpt lat="43.64932" lon="6.79254">
        <ele>474</ele>
        <time>2015-12-20T04:27:04Z</time>
      </trkpt>
      <trkpt lat="43.64957" lon="6.79239">
        <ele>475</ele>
        <time>2015-12-20T04:29:04Z</time>
      </trkpt>
      <trkpt lat="43.64975" lon="6.79258">
        <ele>480</ele>
        <time>2015-12-20T04:31:04Z</time>
      </trkpt>
      <trkpt lat="43.64964" lon="6.79303">
        <ele>480</ele>
        <time>2015-12-20T04:33:04Z</time>
      </trkpt>
      <trkpt lat="43.64926" lon="6.79329">
        <ele>481</ele>
        <time>2015-12-20T04:35:04Z</time>
      </trkpt>
    </trkseg>
  </trk>
</gpx>